Time;durP1;ratioP1;P1;durP2;ratioP2;P2;SDS_P1;SDS_P2;PMS_P1;PMS_P2;Temp;Humidity;BMP_temperature;BMP_pressure;BME280_temperature;BME280_humidity;BME280_pressure;Samples;Min_cycle;Max_cycle;Signal;HPM_P1;HPM_P2
2022/11/21 00:01:24;;;;;;;96.38;49.67;;;-2.60;99.90;;;;;;5007975;28;20209;-79
2022/11/21 00:03:52;;;;;;;82.25;44.67;;;-2.60;99.90;;;;;;4988341;28;20206;-78
2022/11/21 00:06:20;;;;;;;78.25;45.25;;;-2.70;99.90;;;;;;4993307;28;20592;-79
2022/11/21 00:08:47;;;;;;;84.22;44.63;;;-2.60;99.90;;;;;;4997910;28;20206;-79
2022/11/21 00:11:15;;;;;;;82.55;44.03;;;-2.60;99.90;;;;;;5007542;28;20497;-79
2022/11/21 00:13:42;;;;;;;75.45;41.83;;;-2.40;99.90;;;;;;4999556;28;20269;-80
2022/11/21 00:16:12;;;;;;;71.05;43.47;;;-2.50;99.90;;;;;;5004620;28;20233;-79
2022/11/21 00:18:41;;;;;;;88.82;48.50;;;-2.50;99.90;;;;;;5000870;28;20688;-80
2022/11/21 00:21:16;;;;;;;83.22;43.90;;;-2.60;99.90;;;;;;5006668;28;20249;-80
2022/11/21 00:23:44;;;;;;;80.15;42.72;;;-2.60;99.90;;;;;;5010006;28;20249;-79
2022/11/21 00:26:12;;;;;;;72.90;42.67;;;-2.60;99.90;;;;;;5009734;28;20274;-79
2022/11/21 00:28:40;;;;;;;74.47;40.00;;;-2.60;99.90;;;;;;5012177;28;20346;-80
2022/11/21 00:31:07;;;;;;;81.78;41.85;;;-2.60;99.90;;;;;;5018778;28;20209;-81
2022/11/21 00:33:35;;;;;;;72.03;38.80;;;-2.50;99.90;;;;;;5020258;28;20237;-81
2022/11/21 00:36:07;;;;;;;77.65;39.85;;;-2.50;99.90;;;;;;5031861;28;20252;-80
2022/11/21 00:38:34;;;;;;;70.30;39.22;;;-2.50;99.90;;;;;;5007064;28;20282;-79
2022/11/21 00:41:01;;;;;;;73.05;38.22;;;-2.40;99.90;;;;;;5005416;28;20218;-80
2022/11/21 00:43:28;;;;;;;71.90;37.97;;;-2.40;99.90;;;;;;4986440;28;20488;-78
2022/11/21 00:45:55;;;;;;;67.75;39.28;;;-2.40;99.90;;;;;;5009684;28;20308;-79
2022/11/21 00:48:22;;;;;;;79.95;41.42;;;-2.40;99.90;;;;;;4985872;28;20198;-78
2022/11/21 00:50:50;;;;;;;88.65;43.30;;;-2.50;99.90;;;;;;4996893;28;20213;-78
2022/11/21 00:53:16;;;;;;;75.22;43.05;;;-2.40;99.90;;;;;;5001572;28;20206;-79
2022/11/21 00:55:44;;;;;;;88.05;45.75;;;-2.40;99.90;;;;;;5007941;28;20653;-78
2022/11/21 00:58:10;;;;;;;85.13;45.40;;;-2.40;99.90;;;;;;5007537;28;20206;-79
2022/11/21 01:00:37;;;;;;;68.32;41.63;;;-2.30;99.90;;;;;;5000859;28;20538;-80
2022/11/21 01:03:04;;;;;;;81.40;44.47;;;-2.20;99.90;;;;;;5001447;28;20643;-79
2022/11/21 01:05:32;;;;;;;68.32;36.55;;;-2.10;99.90;;;;;;5010099;28;20211;-78
2022/11/21 01:07:59;;;;;;;59.83;35.53;;;-2.00;99.90;;;;;;5003934;28;20359;-78
2022/11/21 01:10:26;;;;;;;70.38;38.10;;;-2.10;99.90;;;;;;5007011;28;20206;-78
2022/11/21 01:12:53;;;;;;;62.90;35.85;;;-1.90;99.90;;;;;;5008743;28;20245;-79
2022/11/21 01:15:19;;;;;;;60.28;35.80;;;-1.90;99.90;;;;;;5002232;28;20214;-79
2022/11/21 01:17:46;;;;;;;72.88;39.42;;;-1.80;99.90;;;;;;5002077;28;20366;-79
2022/11/21 01:20:14;;;;;;;67.68;36.35;;;-1.80;99.90;;;;;;5010709;28;20709;-79
2022/11/21 01:22:40;;;;;;;66.38;37.65;;;-1.70;99.90;;;;;;5007013;28;20398;-80
2022/11/21 01:25:08;;;;;;;60.40;33.42;;;-1.50;99.90;;;;;;4987130;28;20210;-79
2022/11/21 01:27:35;;;;;;;60.92;35.10;;;-1.50;99.90;;;;;;5009385;28;20279;-79
2022/11/21 01:30:02;;;;;;;58.55;32.17;;;-1.30;99.90;;;;;;5001342;28;20206;-81
2022/11/21 01:32:29;;;;;;;60.50;34.63;;;-1.20;99.90;;;;;;5013411;28;20214;-79
2022/11/21 01:34:55;;;;;;;60.20;33.70;;;-1.10;99.90;;;;;;4993292;28;20214;-79
2022/11/21 01:37:22;;;;;;;56.10;33.80;;;-1.20;99.90;;;;;;4988713;28;20407;-79
2022/11/21 01:39:49;;;;;;;57.13;35.42;;;-1.20;99.90;;;;;;5003489;28;20234;-79
2022/11/21 01:42:16;;;;;;;54.65;33.85;;;-1.20;99.90;;;;;;5009291;28;20253;-79
2022/11/21 01:44:50;;;;;;;52.90;32.80;;;-1.30;99.90;;;;;;5007638;28;20206;-78
2022/11/21 01:47:16;;;;;;;56.30;31.25;;;-1.30;99.90;;;;;;5003209;28;20214;-79
2022/11/21 01:49:45;;;;;;;49.67;30.50;;;-1.40;99.90;;;;;;5001373;28;20281;-77
2022/11/21 01:52:24;;;;;;;55.63;32.28;;;-1.40;99.90;;;;;;5009248;28;20277;-78
2022/11/21 01:54:55;;;;;;;44.38;28.17;;;-1.30;99.90;;;;;;5012487;28;20260;-80
2022/11/21 01:57:34;;;;;;;51.92;32.67;;;-1.30;99.90;;;;;;5008285;28;20233;-79
2022/11/21 02:00:04;;;;;;;51.80;30.63;;;-1.20;99.90;;;;;;4992281;28;20272;-79
2022/11/21 02:02:35;;;;;;;52.25;34.25;;;-1.10;99.90;;;;;;4985818;28;20214;-78
2022/11/21 02:05:05;;;;;;;55.28;32.80;;;-1.10;99.90;;;;;;5006473;28;20290;-79
2022/11/21 02:07:38;;;;;;;56.85;32.30;;;-1.10;99.90;;;;;;5002710;28;20218;-77
2022/11/21 02:10:07;;;;;;;50.67;31.15;;;-1.00;99.90;;;;;;5006880;28;20399;-81
2022/11/21 02:12:50;;;;;;;60.78;30.42;;;-1.10;99.90;;;;;;5013125;28;20234;-81
2022/11/21 02:15:19;;;;;;;55.88;33.25;;;-1.00;99.90;;;;;;4999754;28;20210;-80
2022/11/21 02:17:46;;;;;;;56.70;32.67;;;-1.10;99.90;;;;;;5015863;28;20454;-79
2022/11/21 02:20:15;;;;;;;43.40;31.10;;;-1.00;99.90;;;;;;5013877;28;20229;-79
2022/11/21 02:22:57;;;;;;;53.33;32.22;;;-0.90;99.90;;;;;;5009974;28;20315;-79
2022/11/21 02:25:29;;;;;;;45.17;29.27;;;-0.80;99.90;;;;;;5009970;28;20240;-78
2022/11/21 02:28:04;;;;;;;41.70;29.40;;;-0.60;99.90;;;;;;5003681;28;20241;-78
2022/11/21 02:30:34;;;;;;;51.47;30.50;;;-0.70;99.90;;;;;;5001470;28;20229;-79
2022/11/21 02:33:01;;;;;;;51.13;29.10;;;-0.80;99.90;;;;;;5007629;28;20276;-79
2022/11/21 02:35:28;;;;;;;49.13;32.40;;;-0.70;99.90;;;;;;4992944;28;20230;-79
2022/11/21 02:38:19;;;;;;;55.92;31.75;;;-0.80;99.90;;;;;;5001842;28;20245;-79
2022/11/21 02:41:07;;;;;;;47.72;30.88;;;-0.80;99.90;;;;;;5003882;28;20264;-80
2022/11/21 02:43:43;;;;;;;48.35;29.85;;;-0.80;99.90;;;;;;5007909;28;20218;-80
2022/11/21 02:46:10;;;;;;;44.10;26.95;;;-0.80;99.90;;;;;;5003466;28;20253;-79
2022/11/21 02:48:38;;;;;;;43.95;27.73;;;-0.80;99.90;;;;;;5003638;28;20229;-79
2022/11/21 02:51:04;;;;;;;47.03;28.73;;;-0.80;99.90;;;;;;5006265;28;20198;-78
2022/11/21 02:53:32;;;;;;;53.13;29.77;;;-0.60;99.90;;;;;;5005541;28;20258;-81
2022/11/21 02:55:59;;;;;;;50.65;28.83;;;-0.60;99.90;;;;;;5010164;28;20431;-77
2022/11/21 02:58:27;;;;;;;45.40;27.30;;;-0.40;99.90;;;;;;5005145;28;20245;-80
2022/11/21 03:00:54;;;;;;;42.53;28.63;;;-0.40;99.90;;;;;;5009922;28;20230;-80
2022/11/21 03:03:21;;;;;;;41.97;25.90;;;-0.10;99.90;;;;;;5004048;28;20221;-79
2022/11/21 03:05:48;;;;;;;40.22;26.17;;;-0.20;99.90;;;;;;4986954;28;20202;-79
2022/11/21 03:08:15;;;;;;;43.15;28.02;;;-0.30;99.90;;;;;;5004309;28;20206;-77
2022/11/21 03:10:42;;;;;;;50.65;29.33;;;-0.30;99.90;;;;;;5013322;28;20294;-80
2022/11/21 03:13:09;;;;;;;36.88;24.67;;;-0.30;99.90;;;;;;5011782;28;20194;-80
2022/11/21 03:15:36;;;;;;;40.85;27.75;;;-0.20;99.90;;;;;;4995792;28;20429;-80
2022/11/21 03:18:03;;;;;;;39.30;25.23;;;0.00;99.90;;;;;;5008260;28;20269;-78
2022/11/21 03:20:33;;;;;;;50.95;29.38;;;0.00;99.90;;;;;;5002307;28;20331;-77
2022/11/21 03:23:01;;;;;;;45.70;27.23;;;-0.10;99.90;;;;;;5009222;28;20205;-77
2022/11/21 03:25:28;;;;;;;45.35;26.70;;;-0.10;99.90;;;;;;5006795;28;20554;-78
2022/11/21 03:27:55;;;;;;;42.63;26.15;;;-0.20;99.90;;;;;;5007180;28;20209;-77
2022/11/21 03:30:24;;;;;;;42.13;27.38;;;-0.30;99.90;;;;;;5005620;28;20206;-79
2022/11/21 03:32:55;;;;;;;44.33;27.50;;;-0.30;99.90;;;;;;5000630;28;20245;-79
2022/11/21 03:35:22;;;;;;;40.90;24.92;;;-0.20;99.90;;;;;;4985306;28;20289;-79
2022/11/21 03:37:49;;;;;;;41.13;27.15;;;-0.20;99.90;;;;;;5003355;28;20233;-79
2022/11/21 03:40:16;;;;;;;52.35;29.35;;;0.00;99.90;;;;;;5005472;28;20253;-80
2022/11/21 03:42:43;;;;;;;42.63;26.58;;;0.00;99.90;;;;;;5005300;28;20763;-80
2022/11/21 03:45:10;;;;;;;50.92;27.85;;;-0.20;99.90;;;;;;5004915;28;20552;-78
2022/11/21 03:47:37;;;;;;;52.72;30.65;;;-0.20;99.90;;;;;;5005297;28;20210;-81
2022/11/21 03:50:04;;;;;;;38.03;26.45;;;-0.30;99.90;;;;;;5008875;28;20245;-80
2022/11/21 03:52:31;;;;;;;42.70;26.75;;;-0.20;99.90;;;;;;5004183;28;20598;-79
2022/11/21 03:54:58;;;;;;;44.05;27.80;;;-0.10;99.90;;;;;;5001687;28;20206;-80
2022/11/21 03:57:25;;;;;;;51.10;29.77;;;-0.20;99.90;;;;;;5002737;28;20469;-80
2022/11/21 03:59:52;;;;;;;48.78;30.88;;;-0.10;99.90;;;;;;5006938;28;20217;-79
2022/11/21 04:02:19;;;;;;;48.83;28.80;;;-0.10;99.90;;;;;;5015392;28;20252;-79
2022/11/21 04:04:46;;;;;;;52.50;31.42;;;-0.30;99.90;;;;;;4985937;28;20206;-78
2022/11/21 04:07:13;;;;;;;49.47;31.77;;;-0.30;99.90;;;;;;5000067;28;20569;-78
2022/11/21 04:09:40;;;;;;;52.60;28.73;;;-0.30;99.90;;;;;;4999424;28;20265;-81
2022/11/21 04:12:07;;;;;;;45.97;29.35;;;-0.30;99.90;;;;;;5001151;28;20299;-81
2022/11/21 04:14:34;;;;;;;44.53;29.27;;;0.00;99.90;;;;;;5000542;28;20221;-80
2022/11/21 04:17:01;;;;;;;45.72;27.65;;;-0.20;99.90;;;;;;5002207;28;20241;-78
2022/11/21 04:19:28;;;;;;;48.65;29.30;;;-0.20;99.90;;;;;;5003153;28;20213;-79
2022/11/21 04:21:55;;;;;;;42.33;28.70;;;-0.20;99.90;;;;;;5003701;28;20202;-79
2022/11/21 04:24:22;;;;;;;47.60;31.00;;;-0.30;99.90;;;;;;5003328;28;20205;-77
2022/11/21 04:26:49;;;;;;;49.80;30.50;;;-0.50;99.90;;;;;;5002421;28;20316;-79
2022/11/21 04:29:16;;;;;;;41.35;27.20;;;-0.50;99.90;;;;;;5005142;28;20551;-78
2022/11/21 04:31:43;;;;;;;46.00;28.98;;;-0.40;99.90;;;;;;5001226;28;20363;-80
2022/11/21 04:34:10;;;;;;;51.60;30.80;;;-0.40;99.90;;;;;;5008511;28;20253;-78
2022/11/21 04:36:38;;;;;;;53.15;30.98;;;-0.30;99.90;;;;;;5003103;28;20441;-78
2022/11/21 04:39:05;;;;;;;51.20;28.90;;;-0.40;99.90;;;;;;5000143;28;20221;-78
2022/11/21 04:41:32;;;;;;;46.60;30.90;;;-0.30;99.90;;;;;;5002345;28;20206;-79
2022/11/21 04:43:59;;;;;;;49.97;30.67;;;-0.20;99.90;;;;;;5005647;28;20237;-79
2022/11/21 04:46:26;;;;;;;49.53;30.15;;;-0.20;99.90;;;;;;4992979;28;20209;-81
2022/11/21 04:48:53;;;;;;;50.67;28.98;;;-0.20;99.90;;;;;;4985787;28;20209;-80
2022/11/21 04:51:20;;;;;;;49.88;31.23;;;-0.10;99.90;;;;;;5003462;28;20238;-79
2022/11/21 04:53:47;;;;;;;45.72;30.33;;;-0.10;99.90;;;;;;5000934;28;20254;-79
2022/11/21 04:56:15;;;;;;;55.85;32.47;;;-0.10;99.90;;;;;;4995900;28;20198;-82
2022/11/21 04:58:43;;;;;;;49.35;31.75;;;-0.20;99.90;;;;;;4982795;28;20226;-81
2022/11/21 05:01:11;;;;;;;49.53;30.63;;;-0.10;99.90;;;;;;5008438;28;20235;-83
2022/11/21 05:03:38;;;;;;;50.88;29.88;;;-0.20;99.90;;;;;;5017012;28;20210;-81
2022/11/21 05:06:05;;;;;;;52.15;31.55;;;-0.20;99.90;;;;;;5021116;28;20276;-83
2022/11/21 05:08:32;;;;;;;46.13;31.20;;;-0.10;99.90;;;;;;5019402;28;20251;-83
2022/11/21 05:13:44;;;;;;;55.53;33.47;;;0.00;99.90;;;;;;5003360;28;20238;-81
2022/11/21 05:16:11;;;;;;;46.67;31.73;;;0.00;99.90;;;;;;4994983;28;20214;-80
2022/11/21 05:18:39;;;;;;;44.63;30.27;;;0.00;99.90;;;;;;5016058;28;20233;-79
2022/11/21 05:21:05;;;;;;;45.00;28.90;;;-0.10;99.90;;;;;;5003404;28;20565;-80
2022/11/21 05:23:33;;;;;;;53.13;32.40;;;0.00;99.90;;;;;;5009658;28;20211;-81
2022/11/21 05:25:59;;;;;;;48.92;30.70;;;0.10;99.90;;;;;;5005540;28;20206;-78
2022/11/21 05:28:26;;;;;;;51.67;31.15;;;0.00;99.90;;;;;;5010575;28;20272;-78
2022/11/21 05:30:53;;;;;;;44.78;31.70;;;0.10;99.90;;;;;;5008876;28;20249;-79
2022/11/21 05:33:21;;;;;;;49.35;30.88;;;0.20;99.90;;;;;;5002719;28;20249;-80
2022/11/21 05:35:49;;;;;;;50.22;31.95;;;0.20;99.90;;;;;;4985954;28;20244;-80
2022/11/21 05:38:16;;;;;;;50.25;30.52;;;0.20;99.90;;;;;;4985558;28;20633;-80
2022/11/21 05:40:43;;;;;;;47.28;28.88;;;0.20;99.90;;;;;;5010990;28;20427;-80
2022/11/21 05:45:56;;;;;;;48.35;27.67;;;0.20;99.90;;;;;;4991504;28;20210;-79
2022/11/21 05:48:24;;;;;;;51.22;29.13;;;0.20;99.90;;;;;;5010838;28;20214;-80
2022/11/21 05:50:50;;;;;;;48.72;30.55;;;0.30;99.90;;;;;;4994784;28;20218;-80
2022/11/21 05:53:18;;;;;;;43.25;29.33;;;0.20;99.90;;;;;;5004839;28;20226;-79
2022/11/21 05:55:45;;;;;;;38.92;27.30;;;0.10;99.90;;;;;;5006042;28;20210;-76
2022/11/21 05:58:12;;;;;;;42.97;28.48;;;0.00;99.90;;;;;;5003211;28;20281;-78
2022/11/21 06:00:41;;;;;;;43.60;28.73;;;0.00;99.90;;;;;;5001351;28;20218;-82
2022/11/21 06:06:09;;;;;;;48.67;29.50;;;-0.10;99.90;;;;;;4997357;28;20202;-82
2022/11/21 06:08:45;;;;;;;46.53;28.83;;;-0.10;99.90;;;;;;5008735;28;20210;-83
2022/11/21 06:11:16;;;;;;;43.35;29.38;;;0.10;99.90;;;;;;5009041;28;20225;-81
2022/11/21 06:13:43;;;;;;;50.78;31.08;;;0.00;99.90;;;;;;5006082;28;20253;-81
2022/11/21 06:16:15;;;;;;;39.80;25.73;;;0.00;99.90;;;;;;5009123;28;20194;-83
2022/11/21 06:18:44;;;;;;;47.05;28.35;;;0.10;99.90;;;;;;5009086;28;20261;-82
2022/11/21 06:21:20;;;;;;;43.50;26.85;;;0.00;99.90;;;;;;5011307;28;20277;-82
2022/11/21 06:23:51;;;;;;;39.70;27.20;;;0.10;99.90;;;;;;5004883;28;20259;-85
2022/11/21 06:26:20;;;;;;;46.55;28.88;;;0.00;99.90;;;;;;4998647;28;20257;-80
2022/11/21 06:28:48;;;;;;;47.10;28.85;;;0.00;99.90;;;;;;5011620;28;20209;-82
2022/11/21 06:31:18;;;;;;;44.05;27.42;;;0.00;99.90;;;;;;5009341;28;20256;-81
2022/11/21 06:33:45;;;;;;;46.92;27.40;;;-0.10;99.90;;;;;;4999817;28;20211;-83
2022/11/21 06:36:15;;;;;;;43.03;27.92;;;-0.10;99.90;;;;;;5008598;28;20237;-80
2022/11/21 06:38:43;;;;;;;38.95;24.92;;;0.10;99.90;;;;;;5006176;28;20273;-78
2022/11/21 06:41:19;;;;;;;46.70;28.08;;;0.10;99.90;;;;;;5005941;28;20210;-81
2022/11/21 06:43:46;;;;;;;43.95;25.95;;;0.10;99.90;;;;;;4997527;28;20518;-81
2022/11/21 06:46:14;;;;;;;49.92;32.45;;;0.10;99.90;;;;;;4999324;28;20206;-81
2022/11/21 06:48:42;;;;;;;57.08;31.20;;;0.00;99.90;;;;;;5004695;28;20246;-83
2022/11/21 06:51:15;;;;;;;43.90;27.35;;;0.10;99.90;;;;;;5014475;28;20281;-80
2022/11/21 06:53:42;;;;;;;47.55;29.25;;;0.20;99.90;;;;;;5008964;28;20224;-81
2022/11/21 06:56:10;;;;;;;47.10;28.52;;;0.20;99.90;;;;;;5006761;28;20207;-78
2022/11/21 06:58:37;;;;;;;52.40;29.50;;;0.30;99.90;;;;;;5002331;28;20445;-78
2022/11/21 07:01:05;;;;;;;44.38;27.23;;;0.30;99.90;;;;;;4984899;28;20470;-80
2022/11/21 07:03:34;;;;;;;39.35;26.67;;;0.30;99.90;;;;;;5005675;28;20245;-79
2022/11/21 07:06:01;;;;;;;41.35;25.30;;;0.40;99.90;;;;;;5002422;28;20202;-80
2022/11/21 07:08:30;;;;;;;44.25;25.02;;;0.40;99.90;;;;;;5005722;28;20206;-79
2022/11/21 07:11:08;;;;;;;44.13;27.42;;;0.40;99.90;;;;;;5009680;28;20217;-79
2022/11/21 07:13:51;;;;;;;38.72;24.00;;;0.50;99.90;;;;;;5008007;28;20194;-81
2022/11/21 07:16:33;;;;;;;42.75;26.20;;;0.50;99.90;;;;;;4995291;28;20210;-81
2022/11/21 07:19:01;;;;;;;42.58;26.67;;;0.70;99.90;;;;;;5001606;28;20240;-81
2022/11/21 07:21:28;;;;;;;45.22;26.00;;;0.70;99.90;;;;;;4998766;28;20218;-81
2022/11/21 07:23:55;;;;;;;41.03;26.30;;;0.80;99.90;;;;;;5011207;28;20201;-80
2022/11/21 07:26:22;;;;;;;42.30;26.33;;;1.10;99.90;;;;;;5003994;28;20469;-81
2022/11/21 07:28:50;;;;;;;35.78;24.48;;;1.10;99.90;;;;;;5005124;28;20210;-82
2022/11/21 07:31:17;;;;;;;38.83;25.13;;;1.30;99.90;;;;;;4997067;28;20206;-80
2022/11/21 07:33:45;;;;;;;40.40;25.27;;;1.40;99.90;;;;;;4993519;28;20226;-80
2022/11/21 07:36:12;;;;;;;38.97;26.70;;;1.40;99.90;;;;;;4983059;28;20211;-80
2022/11/21 07:38:40;;;;;;;38.70;24.95;;;1.40;99.90;;;;;;5004516;28;20320;-80
2022/11/21 07:41:08;;;;;;;37.03;23.15;;;1.30;99.90;;;;;;5006060;28;20282;-79
2022/11/21 07:43:35;;;;;;;37.63;24.80;;;1.50;99.90;;;;;;4999628;28;20210;-83
2022/11/21 07:46:02;;;;;;;38.33;23.95;;;1.40;99.90;;;;;;5004275;28;20292;-79
2022/11/21 07:48:29;;;;;;;37.20;23.85;;;1.60;99.90;;;;;;4996007;28;20262;-81
2022/11/21 07:50:56;;;;;;;34.00;23.33;;;1.70;99.90;;;;;;5008970;28;20541;-81
2022/11/21 07:53:23;;;;;;;38.53;23.65;;;1.80;99.90;;;;;;4989998;28;20293;-81
2022/11/21 07:55:50;;;;;;;35.17;23.65;;;1.80;99.90;;;;;;5007177;28;20493;-79
2022/11/21 07:58:17;;;;;;;43.55;25.77;;;1.80;99.90;;;;;;5001323;28;20715;-80
2022/11/21 08:00:44;;;;;;;36.67;23.10;;;2.00;99.90;;;;;;5004717;28;20438;-82
2022/11/21 08:03:12;;;;;;;46.22;24.20;;;2.10;99.90;;;;;;5015500;28;20253;-81
2022/11/21 08:05:41;;;;;;;31.02;21.45;;;2.10;99.90;;;;;;5009383;28;20324;-81
2022/11/21 08:08:12;;;;;;;45.47;24.70;;;2.20;99.90;;;;;;4987480;28;20210;-81
2022/11/21 08:10:44;;;;;;;31.88;23.73;;;2.30;99.90;;;;;;4986890;28;20236;-82
2022/11/21 08:13:12;;;;;;;38.15;23.48;;;2.30;99.90;;;;;;4981184;28;20517;-80
2022/11/21 08:15:39;;;;;;;36.13;23.13;;;2.30;99.90;;;;;;5007710;28;20209;-80
2022/11/21 08:18:21;;;;;;;28.38;19.27;;;2.30;99.90;;;;;;5011254;28;20512;-79
2022/11/21 08:20:49;;;;;;;29.25;19.13;;;2.50;99.90;;;;;;5006508;28;20205;-81
2022/11/21 08:23:16;;;;;;;38.45;21.08;;;2.60;99.90;;;;;;5004059;28;20206;-78
2022/11/21 08:25:44;;;;;;;29.33;18.73;;;2.60;99.90;;;;;;4989681;28;20405;-80
2022/11/21 08:28:11;;;;;;;24.52;18.48;;;2.70;99.90;;;;;;5007121;28;20209;-80
2022/11/21 08:30:39;;;;;;;27.83;19.45;;;2.80;99.90;;;;;;5004324;28;20557;-79
2022/11/21 08:33:06;;;;;;;28.65;20.15;;;2.90;99.90;;;;;;4982173;28;20521;-81
2022/11/21 08:35:36;;;;;;;27.98;19.83;;;2.90;99.90;;;;;;4991071;28;20237;-80
2022/11/21 08:38:04;;;;;;;27.75;18.00;;;3.00;99.90;;;;;;5011039;28;20229;-80
2022/11/21 08:40:32;;;;;;;26.90;18.55;;;3.20;99.90;;;;;;5009143;28;20202;-80
2022/11/21 08:43:04;;;;;;;39.17;23.92;;;3.20;99.90;;;;;;5002790;28;20406;-82
2022/11/21 08:45:33;;;;;;;28.00;21.00;;;3.30;99.90;;;;;;5010781;28;20199;-80
2022/11/21 08:47:59;;;;;;;24.50;18.73;;;3.20;99.90;;;;;;5003549;28;20412;-79
2022/11/21 08:50:27;;;;;;;22.65;17.85;;;3.20;99.90;;;;;;4998000;28;20213;-80
2022/11/21 08:53:00;;;;;;;23.48;17.58;;;3.30;99.90;;;;;;5001441;28;20214;-80
2022/11/21 08:55:28;;;;;;;24.40;16.20;;;3.20;99.90;;;;;;5011273;28;20205;-80
2022/11/21 08:57:55;;;;;;;22.52;15.57;;;3.40;99.90;;;;;;5000310;28;20238;-82
2022/11/21 09:00:22;;;;;;;22.35;15.48;;;3.50;99.90;;;;;;5007606;28;20201;-80
2022/11/21 09:02:49;;;;;;;23.50;18.00;;;3.40;99.90;;;;;;5001705;28;20228;-81
2022/11/21 09:05:16;;;;;;;22.20;15.63;;;3.30;99.90;;;;;;5003114;28;20210;-82
2022/11/21 09:07:44;;;;;;;24.80;16.80;;;3.50;99.90;;;;;;5002179;28;20510;-81
2022/11/21 09:10:11;;;;;;;22.63;14.98;;;3.50;99.90;;;;;;5003056;28;20525;-81
2022/11/21 09:12:38;;;;;;;20.77;15.50;;;3.50;99.90;;;;;;4996174;28;20227;-78
2022/11/21 09:18:03;;;;;;;23.75;15.38;;;3.60;99.90;;;;;;4993974;28;20522;-82
2022/11/21 09:20:38;;;;;;;20.45;15.27;;;3.60;99.90;;;;;;4982723;28;20246;-79
2022/11/21 09:23:07;;;;;;;22.23;14.32;;;3.70;99.90;;;;;;5002170;28;20260;-82
2022/11/21 09:25:33;;;;;;;21.13;14.20;;;3.70;99.90;;;;;;5001722;28;20284;-82
2022/11/21 09:28:01;;;;;;;18.75;12.88;;;3.80;99.90;;;;;;4996335;28;20556;-81
2022/11/21 09:30:28;;;;;;;20.15;14.35;;;3.90;99.90;;;;;;5015876;28;20199;-83
2022/11/21 09:33:00;;;;;;;21.02;14.45;;;3.90;99.90;;;;;;5024337;28;20187;-83
2022/11/21 09:35:27;;;;;;;19.42;13.02;;;4.00;99.90;;;;;;5027658;28;20233;-83
2022/11/21 09:37:55;;;;;;;16.08;12.00;;;4.10;99.90;;;;;;5006098;28;20214;-84
2022/11/21 09:40:22;;;;;;;21.80;12.88;;;4.20;99.90;;;;;;5009153;28;20218;-82
2022/11/21 09:43:25;;;;;;;17.45;11.27;;;4.30;99.90;;;;;;5002363;28;20569;-82
2022/11/21 09:46:08;;;;;;;14.65;11.18;;;4.50;99.90;;;;;;4977305;28;20430;-82
2022/11/21 09:48:57;;;;;;;13.75;10.52;;;4.40;99.90;;;;;;4995037;28;20398;-82
2022/11/21 09:51:29;;;;;;;17.85;11.43;;;4.40;99.90;;;;;;5002756;28;20207;-83
2022/11/21 09:54:10;;;;;;;15.48;11.05;;;4.50;99.90;;;;;;5012965;28;20260;-82
2022/11/21 09:56:40;;;;;;;16.92;12.07;;;4.60;99.90;;;;;;5011193;28;20312;-83
2022/11/21 09:59:37;;;;;;;21.52;12.63;;;4.40;99.90;;;;;;4988219;28;20273;-82
2022/11/21 10:02:15;;;;;;;16.13;10.80;;;4.60;99.90;;;;;;5000559;28;20277;-82
2022/11/21 10:04:44;;;;;;;13.27;8.95;;;4.80;99.90;;;;;;4994978;28;20198;-82
2022/11/21 10:07:29;;;;;;;14.80;11.23;;;4.70;99.90;;;;;;4998989;28;20213;-84
2022/11/21 10:10:17;;;;;;;16.27;11.52;;;4.80;99.90;;;;;;4987811;28;20211;-83
2022/11/21 10:13:22;;;;;;;15.38;11.45;;;5.10;99.90;;;;;;5013065;28;20454;-84
2022/11/21 10:16:10;;;;;;;13.95;9.70;;;5.40;99.90;;;;;;5018567;28;20205;-83
2022/11/21 10:19:16;;;;;;;12.32;8.50;;;5.60;99.90;;;;;;4999578;28;20222;-84
2022/11/21 10:22:06;;;;;;;12.80;9.65;;;6.10;99.90;;;;;;4999872;28;20510;-83
2022/11/21 10:24:54;;;;;;;14.50;9.98;;;6.50;99.90;;;;;;4991549;28;20269;-84
2022/11/21 10:27:38;;;;;;;12.32;8.32;;;6.60;99.90;;;;;;4997515;28;20252;-84
2022/11/21 10:30:13;;;;;;;9.30;7.22;;;7.10;99.90;;;;;;4987467;28;20549;-83
2022/11/21 10:32:44;;;;;;;13.95;8.05;;;6.90;99.90;;;;;;4997655;28;20245;-84
2022/11/21 10:35:20;;;;;;;9.95;8.60;;;6.60;99.90;;;;;;4990980;28;20260;-83
2022/11/21 10:38:00;;;;;;;9.35;7.18;;;6.90;99.90;;;;;;4999843;28;20253;-82
2022/11/21 10:40:36;;;;;;;20.83;9.07;;;7.00;99.90;;;;;;4999739;28;20221;-83
2022/11/21 10:46:00;;;;;;;11.05;7.85;;;7.30;99.90;;;;;;4996330;28;20264;-82
2022/11/21 10:48:27;;;;;;;8.55;7.15;;;7.30;99.90;;;;;;4987111;28;20580;-82
2022/11/21 10:51:12;;;;;;;9.45;7.35;;;7.20;99.90;;;;;;5001179;28;20205;-82
2022/11/21 10:56:34;;;;;;;9.90;8.70;;;7.40;99.90;;;;;;5007302;28;20240;-82
2022/11/21 10:59:20;;;;;;;12.32;8.25;;;7.30;99.90;;;;;;4990562;28;20238;-81
2022/11/21 11:02:20;;;;;;;15.85;7.28;;;7.30;99.90;;;;;;5006195;28;20217;-83
2022/11/21 11:04:47;;;;;;;12.50;10.20;;;7.10;99.90;;;;;;5000884;28;20198;-83
2022/11/21 11:07:24;;;;;;;10.85;8.15;;;6.90;99.90;;;;;;4988106;28;20203;-84
2022/11/21 11:09:57;;;;;;;14.13;9.40;;;6.80;99.90;;;;;;4974735;28;20490;-82
2022/11/21 11:15:20;;;;;;;11.98;7.40;;;7.10;99.90;;;;;;5002625;28;20202;-82
2022/11/21 11:18:12;;;;;;;12.82;7.70;;;7.00;99.90;;;;;;5000839;28;20249;-82
2022/11/21 11:20:42;;;;;;;7.95;6.70;;;7.20;99.90;;;;;;5004049;28;20202;-85
2022/11/21 11:23:15;;;;;;;10.48;6.18;;;6.90;99.90;;;;;;5006644;28;20206;-82
2022/11/21 11:25:48;;;;;;;6.43;5.30;;;7.10;99.90;;;;;;5004934;28;20286;-84
2022/11/21 11:28:18;;;;;;;10.32;6.65;;;7.40;99.90;;;;;;5007446;28;20209;-84
2022/11/21 11:30:46;;;;;;;6.78;5.03;;;7.50;99.90;;;;;;5007461;28;20635;-84
2022/11/21 11:33:33;;;;;;;9.23;5.93;;;7.60;99.90;;;;;;4979197;28;20199;-84
2022/11/21 11:36:12;;;;;;;9.65;6.18;;;7.50;99.90;;;;;;4996394;28;20202;-82
2022/11/21 11:38:54;;;;;;;10.07;7.10;;;7.70;99.90;;;;;;5004443;28;20234;-83
2022/11/21 11:47:53;;;;;;;10.65;7.57;;;8.20;99.90;;;;;;5011247;28;20206;-82
2022/11/21 11:50:39;;;;;;;8.50;6.43;;;7.90;99.90;;;;;;4993194;28;20258;-83
2022/11/21 11:53:36;;;;;;;7.65;5.80;;;7.90;99.90;;;;;;4996142;28;20253;-84
2022/11/21 11:56:10;;;;;;;9.05;5.30;;;8.00;99.90;;;;;;4987381;28;20277;-81
2022/11/21 11:58:51;;;;;;;10.52;5.75;;;8.30;99.90;;;;;;5000689;28;20206;-83
2022/11/21 12:01:34;;;;;;;7.05;4.70;;;8.30;99.90;;;;;;5001945;28;20214;-83
2022/11/21 12:04:11;;;;;;;7.50;4.78;;;8.20;99.90;;;;;;4999363;28;20210;-80
2022/11/21 12:06:54;;;;;;;8.23;5.80;;;7.80;99.90;;;;;;4999941;28;20499;-80
2022/11/21 12:09:55;;;;;;;5.90;4.85;;;7.80;99.90;;;;;;4987216;28;20453;-81
2022/11/21 12:12:33;;;;;;;9.77;6.00;;;7.30;99.90;;;;;;4998107;28;20226;-81
2022/11/21 12:15:49;;;;;;;7.93;4.50;;;7.10;99.90;;;;;;5001220;28;20209;-80
2022/11/21 12:18:16;;;;;;;9.15;6.10;;;6.60;99.90;;;;;;4994868;28;20230;-81
2022/11/21 12:21:01;;;;;;;6.97;6.03;;;6.40;99.90;;;;;;5007184;28;20225;-81
2022/11/21 12:24:01;;;;;;;10.07;7.82;;;6.20;99.90;;;;;;4999313;28;20213;-81
2022/11/21 12:26:39;;;;;;;15.98;8.68;;;5.90;99.90;;;;;;4968120;28;20249;-82
2022/11/21 12:29:26;;;;;;;13.50;9.27;;;5.70;99.90;;;;;;5000671;28;20320;-85
2022/11/21 12:31:56;;;;;;;13.90;9.10;;;5.50;99.90;;;;;;4998200;28;20208;-80
2022/11/21 12:34:52;;;;;;;12.35;9.50;;;5.30;99.90;;;;;;5002701;28;20253;-83
2022/11/21 12:38:01;;;;;;;12.10;9.10;;;5.20;99.90;;;;;;4990399;28;20202;-83
2022/11/21 12:40:52;;;;;;;14.20;9.20;;;5.00;99.90;;;;;;4999423;28;20211;-79
2022/11/21 12:44:01;;;;;;;19.85;12.60;;;5.00;99.90;;;;;;5000034;28;20388;-80
2022/11/21 12:46:41;;;;;;;17.30;12.40;;;4.80;99.90;;;;;;4970847;28;20206;-83
2022/11/21 12:55:40;;;;;;;17.65;13.07;;;4.60;99.90;;;;;;4996637;28;20253;-81
2022/11/21 12:58:16;;;;;;;21.77;14.90;;;4.70;99.90;;;;;;4993731;28;20210;-82
2022/11/21 13:01:05;;;;;;;23.25;13.95;;;4.60;99.90;;;;;;4992665;28;20430;-82
2022/11/21 13:03:53;;;;;;;19.02;14.55;;;4.50;99.90;;;;;;5004939;28;20191;-81
2022/11/21 13:06:24;;;;;;;21.15;13.43;;;4.50;99.90;;;;;;4998958;28;20249;-80
2022/11/21 13:08:54;;;;;;;20.15;15.48;;;4.50;99.90;;;;;;5001863;28;20261;-80
2022/11/21 13:14:51;;;;;;;21.67;14.25;;;4.60;99.90;;;;;;4987491;28;20499;-85
2022/11/21 13:17:24;;;;;;;21.65;14.60;;;4.40;99.90;;;;;;4998681;28;20251;-85
2022/11/21 13:20:14;;;;;;;18.05;12.45;;;4.30;99.90;;;;;;4986840;28;20226;-83
2022/11/21 13:22:41;;;;;;;14.32;11.77;;;4.30;99.90;;;;;;4998843;28;20242;-83
2022/11/21 13:25:39;;;;;;;17.92;12.93;;;4.10;99.90;;;;;;4999593;28;20265;-82
2022/11/21 13:28:12;;;;;;;15.90;12.57;;;4.10;99.90;;;;;;4990322;28;20270;-81
2022/11/21 13:30:53;;;;;;;13.63;10.07;;;4.20;99.90;;;;;;5001394;28;20257;-83
2022/11/21 13:33:35;;;;;;;14.18;10.27;;;4.10;99.90;;;;;;5010530;28;20210;-86
2022/11/21 13:36:05;;;;;;;13.52;10.13;;;4.10;99.90;;;;;;5005140;28;20208;-81